Time;durP1;ratioP1;P1;durP2;ratioP2;P2;SDS_P1;SDS_P2;PMS_P1;PMS_P2;Temp;Humidity;BMP_temperature;BMP_pressure;BME280_temperature;BME280_humidity;BME280_pressure;Samples;Min_cycle;Max_cycle;Signal;HPM_P1;HPM_P2
2021/01/27 00:02:13;;;;;;;22.40;13.90;;;-1.60;99.90;;;;;;5034560;28;20433;-75
2021/01/27 00:04:40;;;;;;;18.65;13.10;;;-1.60;99.90;;;;;;5044807;28;20039;-75
2021/01/27 00:07:06;;;;;;;20.13;12.48;;;-1.50;99.90;;;;;;5044328;28;20060;-75
2021/01/27 00:09:33;;;;;;;21.23;13.02;;;-1.50;99.90;;;;;;5043615;28;20189;-75
2021/01/27 00:12:04;;;;;;;23.05;13.68;;;-1.60;99.90;;;;;;5042726;28;20460;-75
2021/01/27 00:14:33;;;;;;;23.45;13.48;;;-1.70;99.90;;;;;;5045327;28;20700;-74
2021/01/27 00:16:59;;;;;;;22.15;13.20;;;-1.70;99.90;;;;;;5045412;28;20138;-75
2021/01/27 00:19:26;;;;;;;25.58;13.93;;;-1.70;99.90;;;;;;5044762;28;20045;-73
2021/01/27 00:21:52;;;;;;;27.25;14.20;;;-1.80;99.90;;;;;;5043866;28;20128;-74
2021/01/27 00:24:18;;;;;;;19.65;13.60;;;-1.70;99.90;;;;;;5043798;28;20362;-75
2021/01/27 00:26:45;;;;;;;27.30;14.32;;;-1.70;99.90;;;;;;5042096;28;20116;-75
2021/01/27 00:29:11;;;;;;;23.45;14.48;;;-1.70;99.90;;;;;;5043770;28;20053;-75
2021/01/27 00:31:37;;;;;;;24.60;14.70;;;-1.70;99.90;;;;;;5023480;28;20129;-75
2021/01/27 00:34:04;;;;;;;23.25;14.85;;;-1.80;99.90;;;;;;5038843;28;20051;-75
2021/01/27 00:36:30;;;;;;;21.67;13.45;;;-1.80;99.90;;;;;;5042041;28;20755;-75
2021/01/27 00:38:57;;;;;;;23.45;14.77;;;-1.80;99.90;;;;;;5044963;28;20099;-75
2021/01/27 00:41:23;;;;;;;26.25;15.90;;;-1.80;99.90;;;;;;5041584;28;20124;-75
2021/01/27 00:43:49;;;;;;;31.98;15.40;;;-1.80;99.90;;;;;;5045558;28;20068;-75
2021/01/27 00:46:16;;;;;;;29.50;16.15;;;-1.80;99.90;;;;;;5048042;28;20052;-75
2021/01/27 00:48:42;;;;;;;28.00;15.85;;;-1.80;99.90;;;;;;5047532;28;20053;-74
2021/01/27 00:51:11;;;;;;;32.45;15.18;;;-1.80;99.90;;;;;;5045864;28;20048;-75
2021/01/27 00:53:41;;;;;;;28.08;15.25;;;-1.80;99.90;;;;;;5048596;28;20112;-75
2021/01/27 00:56:10;;;;;;;27.50;14.90;;;-1.80;99.90;;;;;;5047911;28;20080;-75
2021/01/27 00:58:37;;;;;;;27.00;15.85;;;-1.80;99.90;;;;;;5048360;28;20068;-75
2021/01/27 01:01:04;;;;;;;27.40;14.75;;;-1.80;99.90;;;;;;5048544;28;20129;-74
2021/01/27 01:03:30;;;;;;;21.63;13.38;;;-1.80;99.90;;;;;;5046330;28;20060;-75
2021/01/27 01:05:57;;;;;;;25.65;15.48;;;-1.80;99.90;;;;;;5047203;28;20085;-75
2021/01/27 01:08:23;;;;;;;25.52;14.95;;;-1.70;99.90;;;;;;5046264;28;20129;-74
2021/01/27 01:10:54;;;;;;;22.50;15.00;;;-1.70;99.90;;;;;;5042942;28;20047;-75
2021/01/27 01:13:23;;;;;;;25.85;14.68;;;-1.70;99.90;;;;;;5034403;28;20690;-75
2021/01/27 01:15:51;;;;;;;24.50;13.55;;;-1.60;99.90;;;;;;5042067;28;20045;-74
2021/01/27 01:18:19;;;;;;;23.02;13.85;;;-1.50;99.90;;;;;;5029628;28;20073;-75
2021/01/27 01:20:49;;;;;;;23.00;13.13;;;-1.50;99.90;;;;;;5043689;28;20045;-74
2021/01/27 01:23:18;;;;;;;24.45;13.70;;;-1.50;99.90;;;;;;5047477;28;20079;-75
2021/01/27 01:25:47;;;;;;;24.67;13.10;;;-1.50;99.90;;;;;;5047710;28;20079;-75
2021/01/27 01:28:14;;;;;;;20.35;12.57;;;-1.50;99.90;;;;;;5047155;28;20073;-73
2021/01/27 01:30:43;;;;;;;19.63;12.80;;;-1.50;99.90;;;;;;5046696;28;20135;-74
2021/01/27 01:33:28;;;;;;;23.33;12.45;;;-1.50;99.90;;;;;;5036462;28;20041;-73
2021/01/27 01:35:55;;;;;;;25.50;12.75;;;-1.40;99.90;;;;;;5045398;28;20045;-74
2021/01/27 01:38:21;;;;;;;18.55;11.52;;;-1.40;99.90;;;;;;5047846;28;20044;-74
2021/01/27 01:40:58;;;;;;;24.65;12.18;;;-1.40;99.90;;;;;;5046017;28;20128;-74
2021/01/27 01:43:31;;;;;;;17.48;11.80;;;-1.30;99.90;;;;;;5046834;28;20136;-74
2021/01/27 01:46:01;;;;;;;16.35;10.50;;;-1.30;99.90;;;;;;5047206;28;20827;-74
2021/01/27 01:48:39;;;;;;;17.92;10.52;;;-1.30;99.90;;;;;;5032267;28;20133;-74
2021/01/27 01:51:38;;;;;;;20.85;10.95;;;-1.20;99.90;;;;;;5046961;28;20052;-74
2021/01/27 01:54:29;;;;;;;19.95;10.98;;;-1.20;99.90;;;;;;5068299;28;20176;-75
2021/01/27 01:57:01;;;;;;;20.63;11.18;;;-1.20;99.90;;;;;;5046282;28;20556;-74
2021/01/27 01:59:31;;;;;;;18.63;12.18;;;-1.20;99.90;;;;;;5079909;28;20102;-75
2021/01/27 02:02:09;;;;;;;20.70;11.90;;;-1.20;99.90;;;;;;5046842;28;20170;-74
2021/01/27 02:04:48;;;;;;;18.48;10.60;;;-1.20;99.90;;;;;;5035287;28;20196;-74
2021/01/27 02:07:16;;;;;;;16.88;10.38;;;-1.20;99.90;;;;;;5041760;28;20128;-73
2021/01/27 02:09:42;;;;;;;14.65;9.68;;;-1.30;99.90;;;;;;5047807;28;20072;-74
2021/01/27 02:12:09;;;;;;;15.85;9.57;;;-1.30;99.90;;;;;;5024565;28;20538;-74
2021/01/27 02:15:03;;;;;;;20.67;10.57;;;-1.30;99.90;;;;;;5038346;28;20064;-74
2021/01/27 02:17:45;;;;;;;15.73;9.48;;;-1.40;99.90;;;;;;5046657;28;20041;-74
2021/01/27 02:20:33;;;;;;;16.88;10.15;;;-1.40;99.90;;;;;;5046359;28;20118;-74
2021/01/27 02:23:23;;;;;;;15.68;9.80;;;-1.50;99.90;;;;;;5033126;28;20040;-73
2021/01/27 02:25:52;;;;;;;15.98;9.13;;;-1.50;99.90;;;;;;5044962;28;20462;-74
2021/01/27 02:28:43;;;;;;;18.45;9.30;;;-1.60;99.90;;;;;;5046130;28;20072;-74
2021/01/27 02:31:16;;;;;;;15.93;10.07;;;-1.60;99.90;;;;;;5046538;28;20051;-74
2021/01/27 02:33:55;;;;;;;17.73;9.90;;;-1.70;99.90;;;;;;5046948;28;20106;-74
2021/01/27 02:36:24;;;;;;;14.18;9.07;;;-1.60;99.90;;;;;;5045533;28;20124;-74
2021/01/27 02:38:59;;;;;;;17.13;9.32;;;-1.60;99.90;;;;;;5047190;28;20045;-74
2021/01/27 02:41:39;;;;;;;15.63;8.85;;;-1.60;99.90;;;;;;5045250;28;20462;-74
2021/01/27 02:44:13;;;;;;;15.25;8.70;;;-1.60;99.90;;;;;;5047262;28;20136;-73
2021/01/27 02:46:51;;;;;;;15.30;8.43;;;-1.60;99.90;;;;;;5044714;28;20077;-73
2021/01/27 02:49:21;;;;;;;12.57;7.60;;;-1.50;99.90;;;;;;5046721;28;20718;-75
2021/01/27 02:51:51;;;;;;;14.43;7.80;;;-1.40;99.90;;;;;;5043741;28;20056;-74
2021/01/27 02:54:24;;;;;;;12.07;8.48;;;-1.50;99.90;;;;;;5046069;28;20571;-74
2021/01/27 02:57:20;;;;;;;12.10;7.93;;;-1.50;99.90;;;;;;5044408;28;20098;-75
2021/01/27 03:00:05;;;;;;;15.10;8.27;;;-1.40;99.90;;;;;;5039174;28;20084;-74
2021/01/27 03:02:38;;;;;;;12.32;8.15;;;-1.40;99.90;;;;;;5045639;28;20127;-74
2021/01/27 03:05:20;;;;;;;12.05;8.20;;;-1.30;99.90;;;;;;5043195;28;20049;-75
2021/01/27 03:07:56;;;;;;;12.68;7.97;;;-1.40;99.90;;;;;;5045001;28;20071;-74
2021/01/27 03:10:28;;;;;;;15.82;8.95;;;-1.40;99.90;;;;;;5043831;28;20040;-76
2021/01/27 03:12:55;;;;;;;;;;;-1.40;99.90;;;;;;5045485;28;20106;-73
2021/01/27 03:15:22;;;;;;;10.07;7.55;;;-1.40;99.90;;;;;;5044983;28;19964;-74
2021/01/27 03:17:54;;;;;;;17.30;9.43;;;-1.50;99.90;;;;;;5044027;28;20555;-73
2021/01/27 03:20:32;;;;;;;17.15;9.35;;;-1.60;99.90;;;;;;5045003;28;20132;-74
2021/01/27 03:23:33;;;;;;;15.38;9.50;;;-1.60;99.90;;;;;;5030482;28;20037;-73
2021/01/27 03:26:26;;;;;;;14.80;9.18;;;-1.70;99.90;;;;;;5044762;28;20635;-73
2021/01/27 03:28:57;;;;;;;15.85;9.70;;;-1.70;99.90;;;;;;5044329;28;20116;-73
2021/01/27 03:31:27;;;;;;;14.68;9.32;;;-1.70;99.90;;;;;;5043999;28;20470;-74
2021/01/27 03:34:05;;;;;;;15.25;10.00;;;-1.70;99.90;;;;;;5045813;28;20064;-73
2021/01/27 03:36:44;;;;;;;14.95;9.73;;;-1.70;99.90;;;;;;5043852;28;21219;-73
2021/01/27 03:39:13;;;;;;;19.55;9.77;;;-1.60;99.90;;;;;;5045206;28;20049;-74
2021/01/27 03:41:53;;;;;;;12.07;8.73;;;-1.60;99.90;;;;;;5032858;28;20363;-73
2021/01/27 03:44:37;;;;;;;13.27;9.10;;;-1.50;99.90;;;;;;5041487;28;20060;-73
2021/01/27 03:47:11;;;;;;;14.05;9.30;;;-1.50;99.90;;;;;;5025466;28;20132;-72
2021/01/27 03:50:00;;;;;;;17.13;9.48;;;-1.40;99.90;;;;;;5039022;28;20045;-74
2021/01/27 03:52:37;;;;;;;13.15;9.07;;;-1.40;99.90;;;;;;5029775;28;20053;-74
2021/01/27 03:55:40;;;;;;;11.13;7.85;;;-1.40;99.90;;;;;;5044699;28;20045;-73
2021/01/27 03:58:15;;;;;;;13.35;8.85;;;-1.40;99.90;;;;;;5032052;28;20047;-74
2021/01/27 04:00:45;;;;;;;11.40;7.53;;;-1.40;99.90;;;;;;5042144;28;20095;-73
2021/01/27 04:03:16;;;;;;;15.32;8.75;;;-1.30;99.90;;;;;;5041704;28;20048;-74
2021/01/27 04:05:46;;;;;;;15.95;8.43;;;-1.30;99.90;;;;;;5058685;28;20487;-73
2021/01/27 04:08:14;;;;;;;16.88;9.35;;;-1.30;99.90;;;;;;5033048;28;20080;-74
2021/01/27 04:10:40;;;;;;;18.42;9.02;;;-1.30;99.90;;;;;;5043195;28;20072;-73
2021/01/27 04:13:07;;;;;;;15.88;8.85;;;-1.30;99.90;;;;;;5040833;28;20098;-73
2021/01/27 04:15:34;;;;;;;16.35;8.45;;;-1.30;99.90;;;;;;5050979;28;20136;-73
2021/01/27 04:18:01;;;;;;;19.52;8.32;;;-1.30;99.90;;;;;;5053702;28;20068;-73
2021/01/27 04:20:30;;;;;;;14.52;7.50;;;-1.30;99.90;;;;;;5054631;28;20059;-74
2021/01/27 04:22:59;;;;;;;15.25;8.57;;;-1.30;99.90;;;;;;5054220;28;20080;-74
2021/01/27 04:25:27;;;;;;;14.15;8.52;;;-1.30;99.90;;;;;;5056401;28;20357;-75
2021/01/27 04:27:55;;;;;;;10.50;7.32;;;-1.30;99.90;;;;;;5052548;28;20049;-74
2021/01/27 04:30:28;;;;;;;13.50;6.95;;;-1.20;99.90;;;;;;5056595;28;20095;-75
2021/01/27 04:32:56;;;;;;;10.90;8.45;;;-1.20;99.90;;;;;;5051434;28;20053;-77
2021/01/27 04:35:24;;;;;;;12.48;7.30;;;-1.30;99.90;;;;;;5050000;28;20043;-80
2021/01/27 04:37:51;;;;;;;14.77;8.05;;;-1.30;99.90;;;;;;5050961;28;20040;-80
2021/01/27 04:40:28;;;;;;;15.13;7.28;;;-1.30;99.90;;;;;;5049477;28;20147;-80
2021/01/27 04:42:58;;;;;;;13.55;6.97;;;-1.30;99.90;;;;;;5049041;28;20084;-79
2021/01/27 04:45:24;;;;;;;11.48;7.32;;;-1.30;99.90;;;;;;5064510;28;20040;-79
2021/01/27 04:47:57;;;;;;;7.68;6.38;;;-1.30;99.90;;;;;;5062335;28;20053;-79
2021/01/27 04:50:34;;;;;;;11.50;7.05;;;-1.30;99.90;;;;;;5066887;28;20033;-80
2021/01/27 04:53:27;;;;;;;12.60;6.95;;;-1.30;99.90;;;;;;5062087;28;20053;-80
2021/01/27 04:56:03;;;;;;;8.50;6.70;;;-1.30;99.90;;;;;;5102178;28;20127;-79
2021/01/27 04:58:56;;;;;;;10.85;7.82;;;-1.30;99.90;;;;;;5061599;28;20056;-79
2021/01/27 05:01:33;;;;;;;12.05;6.78;;;-1.20;99.90;;;;;;5056368;28;20037;-78
2021/01/27 05:04:04;;;;;;;10.50;6.65;;;-1.20;99.90;;;;;;5069809;28;20287;-78
2021/01/27 05:06:39;;;;;;;10.13;6.28;;;-1.10;99.90;;;;;;5055940;28;20060;-79
2021/01/27 05:09:24;;;;;;;11.70;6.95;;;-1.10;99.90;;;;;;5051713;28;20077;-79
2021/01/27 05:11:55;;;;;;;13.63;6.18;;;-1.10;99.90;;;;;;5051495;28;20134;-77
2021/01/27 05:14:23;;;;;;;9.90;6.40;;;-1.10;99.90;;;;;;5046370;28;20531;-73
2021/01/27 05:16:53;;;;;;;13.57;6.88;;;-1.10;99.90;;;;;;5048990;28;20080;-75
2021/01/27 05:19:22;;;;;;;10.30;5.82;;;-1.10;99.90;;;;;;5030986;28;20150;-75
2021/01/27 05:21:56;;;;;;;10.93;6.05;;;-1.10;99.90;;;;;;5047652;28;20547;-75
2021/01/27 05:24:23;;;;;;;9.80;5.40;;;-1.10;99.90;;;;;;5040184;28;20045;-75
2021/01/27 05:27:04;;;;;;;9.80;5.60;;;-1.10;99.90;;;;;;5038550;28;20045;-73
2021/01/27 05:29:44;;;;;;;9.15;6.85;;;-1.10;99.90;;;;;;5048782;28;20675;-76
2021/01/27 05:32:17;;;;;;;7.90;5.57;;;-1.10;99.90;;;;;;5037455;28;20055;-74
2021/01/27 05:34:50;;;;;;;11.95;5.50;;;-1.10;99.90;;;;;;5047811;28;20060;-75
2021/01/27 05:37:30;;;;;;;10.25;6.00;;;-1.00;99.90;;;;;;5048263;28;20139;-75
2021/01/27 05:40:20;;;;;;;12.70;6.50;;;-1.00;99.90;;;;;;5047002;28;20052;-74
2021/01/27 05:42:48;;;;;;;10.77;5.85;;;-1.00;99.90;;;;;;5035687;28;20041;-74
2021/01/27 05:45:36;;;;;;;7.32;5.35;;;-1.00;99.90;;;;;;5035429;28;20056;-74
2021/01/27 05:48:14;;;;;;;11.30;5.95;;;-1.10;99.90;;;;;;5046732;28;20061;-74
2021/01/27 05:50:45;;;;;;;11.82;5.68;;;-1.00;99.90;;;;;;5039640;28;20047;-75
2021/01/27 05:53:22;;;;;;;7.65;5.70;;;-1.00;99.90;;;;;;5037901;28;20415;-74
2021/01/27 05:56:15;;;;;;;8.20;5.70;;;-1.00;99.90;;;;;;5072012;28;20438;-73
2021/01/27 05:58:55;;;;;;;10.23;5.72;;;-1.00;99.90;;;;;;5038986;28;20045;-74
2021/01/27 06:01:29;;;;;;;11.98;6.07;;;-1.00;99.90;;;;;;5039348;28;20068;-74
2021/01/27 06:04:27;;;;;;;10.40;6.00;;;-1.00;99.90;;;;;;5042061;28;20044;-73
2021/01/27 06:07:01;;;;;;;8.00;6.28;;;-1.10;99.90;;;;;;5038428;28;20551;-73
2021/01/27 06:09:48;;;;;;;7.60;5.70;;;-1.00;99.90;;;;;;5039184;28;20554;-73
2021/01/27 06:12:21;;;;;;;8.93;6.45;;;-1.10;99.90;;;;;;5044712;28;20403;-74
2021/01/27 06:15:06;;;;;;;12.32;5.93;;;-1.00;99.90;;;;;;5033882;28;20136;-74
2021/01/27 06:17:53;;;;;;;9.98;6.30;;;-1.10;99.90;;;;;;5034794;28;20050;-75
2021/01/27 06:20:30;;;;;;;9.05;6.30;;;-1.10;99.90;;;;;;5037760;28;20049;-74
2021/01/27 06:23:13;;;;;;;10.52;6.47;;;-1.10;99.90;;;;;;5038090;28;20049;-74
2021/01/27 06:26:06;;;;;;;9.10;6.30;;;-1.20;99.90;;;;;;5042093;28;20041;-74
2021/01/27 06:29:09;;;;;;;13.82;6.70;;;-1.20;99.90;;;;;;5028539;28;20524;-75
2021/01/27 06:32:02;;;;;;;14.68;7.35;;;-1.20;99.90;;;;;;5043266;28;20053;-74
2021/01/27 06:34:48;;;;;;;11.80;6.93;;;-1.20;99.90;;;;;;5040929;28;20560;-75
2021/01/27 06:37:37;;;;;;;13.07;8.02;;;-1.20;99.90;;;;;;5055843;28;20085;-74
2021/01/27 06:40:19;;;;;;;12.68;7.55;;;-1.20;99.90;;;;;;5039252;28;20430;-74
2021/01/27 06:42:59;;;;;;;11.80;6.73;;;-1.20;99.90;;;;;;5045087;28;20103;-74
2021/01/27 06:45:58;;;;;;;11.15;6.47;;;-1.20;99.90;;;;;;5038278;28;20056;-73
2021/01/27 06:48:59;;;;;;;14.85;8.95;;;-1.10;99.90;;;;;;5042768;28;20128;-73
2021/01/27 06:51:35;;;;;;;9.40;6.30;;;-1.10;99.90;;;;;;5031218;28;20622;-73
2021/01/27 06:54:47;;;;;;;13.90;6.60;;;-1.10;99.90;;;;;;5037571;28;20127;-73
2021/01/27 06:57:36;;;;;;;11.90;6.45;;;-1.10;99.90;;;;;;5042922;28;20041;-73
2021/01/27 07:00:05;;;;;;;13.98;6.93;;;-1.10;99.90;;;;;;5066778;28;20093;-74
2021/01/27 07:02:50;;;;;;;12.00;7.15;;;-1.10;99.90;;;;;;5035569;28;20131;-74
2021/01/27 07:05:42;;;;;;;12.02;7.13;;;-1.10;99.90;;;;;;5043858;28;20297;-74
2021/01/27 07:08:33;;;;;;;12.18;7.22;;;-1.10;99.90;;;;;;5041604;28;20484;-74
2021/01/27 07:11:25;;;;;;;13.68;8.25;;;-1.10;99.90;;;;;;5043756;28;20122;-74
2021/01/27 07:13:51;;;;;;;11.85;7.43;;;-1.10;99.90;;;;;;5038620;28;20057;-74
2021/01/27 07:16:58;;;;;;;9.93;7.28;;;-1.20;99.90;;;;;;5034874;28;20122;-74
2021/01/27 07:19:50;;;;;;;14.13;7.55;;;-1.20;99.90;;;;;;5033967;28;20495;-74
2021/01/27 07:22:42;;;;;;;14.35;8.23;;;-1.20;99.90;;;;;;5033859;28;20056;-74
2021/01/27 07:25:20;;;;;;;15.48;8.35;;;-1.20;99.90;;;;;;5045283;28;20056;-74
2021/01/27 07:28:02;;;;;;;13.85;8.98;;;-1.20;99.90;;;;;;5044257;28;20127;-74
2021/01/27 07:30:44;;;;;;;14.50;8.70;;;-1.20;99.90;;;;;;5045585;28;20396;-74
2021/01/27 07:33:21;;;;;;;13.23;9.18;;;-1.30;99.90;;;;;;5048340;28;20045;-74
2021/01/27 07:35:57;;;;;;;17.77;10.07;;;-1.30;99.90;;;;;;5033386;28;20040;-75
2021/01/27 07:38:32;;;;;;;18.73;10.23;;;-1.30;99.90;;;;;;5045220;28;20107;-74
2021/01/27 07:41:10;;;;;;;17.40;10.82;;;-1.30;99.90;;;;;;5030588;28;20045;-74
2021/01/27 07:44:01;;;;;;;19.10;10.40;;;-1.30;99.90;;;;;;5043983;28;20490;-74
2021/01/27 07:46:38;;;;;;;19.27;11.07;;;-1.40;99.90;;;;;;5043316;28;20146;-74
2021/01/27 07:49:06;;;;;;;20.98;11.05;;;-1.30;99.90;;;;;;5042847;28;20121;-74
2021/01/27 07:51:50;;;;;;;16.08;11.40;;;-1.40;99.90;;;;;;5042131;28;20452;-74
2021/01/27 07:54:34;;;;;;;19.50;11.32;;;-1.40;99.90;;;;;;5033901;28;20128;-75
2021/01/27 07:57:19;;;;;;;18.55;11.32;;;-1.30;99.90;;;;;;5044029;28;20151;-74
2021/01/27 08:00:30;;;;;;;15.38;10.25;;;-1.30;99.90;;;;;;5044150;28;20049;-74
2021/01/27 08:03:22;;;;;;;17.45;11.55;;;-1.40;99.90;;;;;;5014695;28;20239;-74
2021/01/27 08:05:51;;;;;;;19.42;10.27;;;-1.30;99.90;;;;;;5022752;28;20050;-74
2021/01/27 08:08:23;;;;;;;19.33;11.77;;;-1.30;99.90;;;;;;5021957;28;20451;-74
2021/01/27 08:10:51;;;;;;;;;;;-1.30;99.90;;;;;;5017515;28;20067;-74
2021/01/27 08:13:34;;;;;;;18.27;11.13;;;-1.30;99.90;;;;;;5005821;28;19921;-73
2021/01/27 08:16:25;;;;;;;19.92;12.45;;;-1.20;99.90;;;;;;5021758;28;20614;-74
2021/01/27 08:19:10;;;;;;;21.05;11.05;;;-1.20;99.90;;;;;;5022257;28;20045;-74
2021/01/27 08:21:46;;;;;;;19.58;10.35;;;-1.20;99.90;;;;;;5018064;28;20049;-74
2021/01/27 08:24:33;;;;;;;15.55;9.75;;;-1.20;99.90;;;;;;5004188;28;20049;-74
2021/01/27 08:27:14;;;;;;;20.80;10.60;;;-1.20;99.90;;;;;;5019651;28;20053;-74
2021/01/27 08:30:05;;;;;;;18.77;10.23;;;-1.20;99.90;;;;;;5005389;28;20050;-73
2021/01/27 08:32:32;;;;;;;19.13;11.23;;;-1.10;99.90;;;;;;5021377;28;20042;-74
2021/01/27 08:35:00;;;;;;;15.77;10.65;;;-1.10;99.90;;;;;;5040581;28;20042;-74
2021/01/27 08:37:30;;;;;;;16.33;10.00;;;-1.00;99.90;;;;;;5042879;28;20076;-73
2021/01/27 08:40:31;;;;;;;18.60;10.75;;;-1.10;99.90;;;;;;5043874;28;20045;-74
2021/01/27 08:43:05;;;;;;;19.70;11.38;;;-1.10;99.90;;;;;;5037997;28;20064;-73
2021/01/27 08:45:33;;;;;;;21.48;10.98;;;-1.00;99.90;;;;;;5042459;28;20075;-74
2021/01/27 08:48:06;;;;;;;18.33;11.75;;;-1.10;99.90;;;;;;5033307;28;20539;-74
2021/01/27 08:50:52;;;;;;;25.50;12.68;;;-1.10;99.90;;;;;;5041375;28;20135;-75
2021/01/27 08:53:28;;;;;;;17.25;10.25;;;-1.00;99.90;;;;;;5044165;28;20068;-74
2021/01/27 08:55:59;;;;;;;20.52;11.82;;;-1.10;99.90;;;;;;5043922;28;20056;-74
2021/01/27 08:58:28;;;;;;;15.65;10.50;;;-1.10;99.90;;;;;;5043207;28;20053;-74
2021/01/27 09:01:20;;;;;;;14.75;9.80;;;-1.10;99.90;;;;;;5043485;28;20059;-73
2021/01/27 09:03:50;;;;;;;;;;;-1.10;99.90;;;;;;5035021;28;20046;-74
2021/01/27 09:06:34;;;;;;;21.17;10.30;;;-1.20;99.90;;;;;;5048452;28;19928;-74
2021/01/27 09:09:07;;;;;;;18.92;9.80;;;-1.20;99.90;;;;;;5046631;28;20045;-74
2021/01/27 09:11:36;;;;;;;20.45;9.27;;;-1.20;99.90;;;;;;5045570;28;20048;-74
2021/01/27 09:14:15;;;;;;;24.27;11.70;;;-1.20;99.90;;;;;;5044512;28;20060;-73
2021/01/27 09:16:44;;;;;;;26.25;10.80;;;-1.10;99.90;;;;;;5054821;28;20239;-74
2021/01/27 09:19:24;;;;;;;36.33;14.65;;;-1.10;99.90;;;;;;5046901;28;20128;-73
2021/01/27 09:22:03;;;;;;;36.38;14.13;;;-1.10;99.90;;;;;;5044793;28;20106;-74
2021/01/27 09:24:47;;;;;;;19.80;9.10;;;-1.10;99.90;;;;;;5044296;28;20041;-74
2021/01/27 09:27:13;;;;;;;10.65;7.25;;;-1.10;99.90;;;;;;5046466;28;20057;-74
2021/01/27 09:29:40;;;;;;;12.15;7.50;;;-1.20;99.90;;;;;;5046639;28;20118;-74
2021/01/27 09:32:17;;;;;;;11.63;8.45;;;-1.20;99.90;;;;;;5042486;28;20456;-73
2021/01/27 09:34:45;;;;;;;11.75;7.50;;;-1.20;99.90;;;;;;5045161;28;20041;-74
2021/01/27 09:37:24;;;;;;;13.80;7.93;;;-1.20;99.90;;;;;;5048146;28;20045;-74
2021/01/27 09:40:07;;;;;;;11.48;6.90;;;-1.20;99.90;;;;;;5048680;28;20076;-74
2021/01/27 09:42:34;;;;;;;9.25;6.32;;;-1.20;99.90;;;;;;5070656;28;20044;-73
2021/01/27 09:45:08;;;;;;;12.52;6.22;;;-1.20;99.90;;;;;;5048873;28;20045;-74
2021/01/27 09:47:38;;;;;;;8.98;6.03;;;-1.10;99.90;;;;;;5048268;28;20057;-74
2021/01/27 09:50:07;;;;;;;9.70;6.07;;;-1.10;99.90;;;;;;5045679;28;20492;-74
2021/01/27 09:52:34;;;;;;;9.10;6.10;;;-1.10;99.90;;;;;;5039873;28;20060;-74
2021/01/27 09:55:12;;;;;;;9.40;6.68;;;-1.10;99.90;;;;;;5047009;28;20049;-74
2021/01/27 09:57:42;;;;;;;8.23;5.85;;;-1.10;99.90;;;;;;5046069;28;20473;-75
2021/01/27 10:00:23;;;;;;;10.35;5.90;;;-0.90;99.90;;;;;;5046238;28;20140;-74
2021/01/27 10:02:52;;;;;;;8.57;5.75;;;-0.90;99.90;;;;;;5034529;28;20395;-74
2021/01/27 10:05:35;;;;;;;6.30;5.65;;;-0.90;99.90;;;;;;5046406;28;20040;-74
2021/01/27 10:08:12;;;;;;;6.75;5.40;;;-0.80;99.90;;;;;;5032564;28;20049;-74
2021/01/27 10:11:11;;;;;;;6.63;5.22;;;-0.70;99.90;;;;;;5052922;28;20110;-74
2021/01/27 10:13:42;;;;;;;10.02;5.90;;;-0.60;99.90;;;;;;5046877;28;20045;-75
2021/01/27 10:16:12;;;;;;;8.02;5.13;;;-0.60;99.90;;;;;;5052556;28;20048;-75
2021/01/27 10:18:42;;;;;;;8.85;4.97;;;-0.50;99.90;;;;;;5047093;28;20049;-73
2021/01/27 10:21:12;;;;;;;9.88;5.55;;;-0.30;99.90;;;;;;5050836;28;20056;-74
2021/01/27 10:23:47;;;;;;;4.95;4.43;;;-0.20;99.90;;;;;;5047434;28;20033;-74
2021/01/27 10:26:29;;;;;;;6.40;3.83;;;0.00;99.90;;;;;;5036525;28;20072;-74
2021/01/27 10:29:21;;;;;;;8.07;3.50;;;0.00;99.90;;;;;;5038285;28;21811;-74
2021/01/27 10:31:51;;;;;;;4.50;4.03;;;0.10;99.90;;;;;;5046854;28;20126;-74
2021/01/27 10:34:38;;;;;;;4.85;3.50;;;0.10;99.90;;;;;;5046413;28;20044;-74
2021/01/27 10:37:24;;;;;;;7.32;4.22;;;0.10;99.90;;;;;;5045745;28;20059;-75
2021/01/27 10:40:18;;;;;;;5.28;3.90;;;0.20;99.90;;;;;;5046204;28;20057;-74
2021/01/27 10:42:50;;;;;;;5.28;3.40;;;0.20;99.90;;;;;;5057022;28;20057;-73
2021/01/27 10:45:20;;;;;;;7.57;5.03;;;0.20;99.90;;;;;;5046006;28;20044;-73
2021/01/27 10:48:29;;;;;;;7.50;3.67;;;0.10;99.90;;;;;;5044557;28;20573;-73
2021/01/27 10:51:09;;;;;;;5.18;3.95;;;0.00;99.90;;;;;;5040068;28;20130;-72
2021/01/27 10:53:42;;;;;;;6.45;3.60;;;0.10;99.90;;;;;;5047556;28;20099;-73
2021/01/27 10:56:13;;;;;;;6.15;3.72;;;0.20;99.90;;;;;;5044034;28;20054;-73
2021/01/27 10:58:39;;;;;;;5.15;3.10;;;0.20;99.90;;;;;;5046152;28;20130;-73
2021/01/27 11:01:06;;;;;;;4.45;3.05;;;0.10;99.90;;;;;;5038779;28;20040;-73
2021/01/27 11:03:35;;;;;;;5.63;3.05;;;0.00;99.90;;;;;;5049469;28;20107;-73
2021/01/27 11:06:02;;;;;;;6.22;3.25;;;0.10;99.90;;;;;;5043607;28;20059;-73
2021/01/27 11:08:34;;;;;;;5.95;4.35;;;0.00;99.90;;;;;;5045330;28;20053;-74
2021/01/27 11:11:05;;;;;;;4.85;2.92;;;0.10;99.90;;;;;;5045436;28;20057;-74
2021/01/27 11:13:34;;;;;;;5.55;2.88;;;0.20;99.90;;;;;;5045550;28;20084;-74
2021/01/27 11:16:01;;;;;;;5.03;2.80;;;0.10;99.90;;;;;;5025049;28;20072;-74
2021/01/27 11:18:28;;;;;;;3.03;2.67;;;0.10;99.90;;;;;;5044961;28;20069;-74
2021/01/27 11:20:55;;;;;;;2.95;2.67;;;0.20;99.90;;;;;;5044427;28;20057;-74
2021/01/27 11:23:22;;;;;;;3.65;2.47;;;0.10;99.90;;;;;;5043853;28;20045;-74
2021/01/27 11:25:54;;;;;;;6.70;3.80;;;0.00;99.90;;;;;;5043573;28;20047;-74
2021/01/27 11:28:23;;;;;;;8.98;4.00;;;0.00;99.90;;;;;;5043192;28;20072;-75
2021/01/27 11:30:53;;;;;;;5.47;2.53;;;0.20;99.90;;;;;;5044208;28;20049;-73
2021/01/27 11:33:24;;;;;;;6.25;3.78;;;0.20;99.90;;;;;;5046131;28;20047;-74
2021/01/27 11:35:53;;;;;;;4.97;3.00;;;0.20;99.90;;;;;;5032646;28;20753;-75
2021/01/27 11:38:20;;;;;;;5.88;3.25;;;0.10;99.90;;;;;;5041505;28;20041;-75
2021/01/27 11:40:51;;;;;;;3.10;2.80;;;0.20;99.90;;;;;;5035415;28;20060;-74
2021/01/27 11:43:18;;;;;;;3.17;2.53;;;0.20;99.90;;;;;;5042904;28;20072;-75
2021/01/27 11:45:44;;;;;;;3.30;2.80;;;0.20;99.90;;;;;;5039499;28;20128;-75
2021/01/27 11:48:31;;;;;;;9.90;3.00;;;0.20;99.90;;;;;;5030978;28;20059;-74
2021/01/27 11:50:58;;;;;;;5.40;2.47;;;0.30;99.90;;;;;;5047321;28;20060;-74
2021/01/27 11:53:27;;;;;;;5.53;2.97;;;0.40;99.90;;;;;;5044947;28;20459;-74
2021/01/27 11:55:53;;;;;;;5.35;3.42;;;0.30;99.90;;;;;;5042581;28;20119;-74
2021/01/27 11:58:24;;;;;;;7.38;3.30;;;0.10;99.90;;;;;;5044094;28;20045;-74
2021/01/27 12:00:52;;;;;;;2.87;2.57;;;0.20;99.90;;;;;;5052011;28;20056;-74
2021/01/27 12:03:19;;;;;;;4.60;2.97;;;0.30;99.90;;;;;;5048246;28;20052;-75
2021/01/27 12:05:48;;;;;;;3.45;2.65;;;0.40;99.90;;;;;;5043148;28;20057;-74
2021/01/27 12:08:20;;;;;;;6.35;3.40;;;0.50;99.90;;;;;;5035922;28;20099;-74
2021/01/27 12:10:47;;;;;;;6.32;3.30;;;0.60;99.90;;;;;;5039169;28;20519;-74
2021/01/27 12:13:18;;;;;;;8.50;3.58;;;0.60;99.90;;;;;;5044980;28;20059;-74
2021/01/27 12:15:45;;;;;;;4.95;3.10;;;0.50;99.90;;;;;;5038377;28;21167;-75
2021/01/27 12:18:16;;;;;;;4.38;3.20;;;0.50;99.90;;;;;;5044748;28;20045;-76
2021/01/27 12:20:47;;;;;;;4.28;3.03;;;0.40;99.90;;;;;;5044285;28;20036;-75
2021/01/27 12:23:14;;;;;;;3.88;3.03;;;0.40;99.90;;;;;;5034955;28;20095;-75
2021/01/27 12:25:44;;;;;;;8.35;4.55;;;0.30;99.90;;;;;;5038148;28;20060;-75
2021/01/27 12:28:13;;;;;;;5.63;3.55;;;0.30;99.90;;;;;;5043624;28;20052;-75
2021/01/27 12:30:40;;;;;;;4.05;3.30;;;0.30;99.90;;;;;;5031789;28;20044;-74
2021/01/27 12:33:08;;;;;;;6.85;3.85;;;0.20;99.90;;;;;;5045092;28;20135;-75
2021/01/27 12:35:37;;;;;;;4.80;3.10;;;0.20;99.90;;;;;;5039197;28;20057;-76
2021/01/27 12:38:03;;;;;;;4.22;3.83;;;0.20;99.90;;;;;;5040539;28;20045;-75
2021/01/27 12:40:30;;;;;;;7.15;3.90;;;0.20;99.90;;;;;;5046544;28;20049;-75
2021/01/27 12:42:57;;;;;;;7.35;5.45;;;0.20;99.90;;;;;;5045930;28;20160;-75
2021/01/27 12:45:26;;;;;;;4.65;3.58;;;0.30;99.90;;;;;;5049389;28;20098;-75
2021/01/27 12:47:53;;;;;;;4.57;3.35;;;0.20;99.90;;;;;;5048976;28;20056;-76
2021/01/27 12:50:24;;;;;;;5.78;3.50;;;0.20;99.90;;;;;;5048525;28;20059;-75
2021/01/27 12:52:50;;;;;;;4.82;3.65;;;0.20;99.90;;;;;;5049879;28;20183;-74
2021/01/27 12:55:20;;;;;;;5.25;3.50;;;0.10;99.90;;;;;;5048093;28;20053;-75
2021/01/27 12:57:48;;;;;;;6.63;3.50;;;0.10;99.90;;;;;;5042878;28;20048;-75
2021/01/27 13:00:22;;;;;;;6.97;3.88;;;0.10;99.90;;;;;;5046722;28;20081;-75
2021/01/27 13:02:54;;;;;;;5.93;4.10;;;0.10;99.90;;;;;;5046774;28;20053;-76
2021/01/27 13:05:28;;;;;;;8.05;4.07;;;0.20;99.90;;;;;;5049779;28;20056;-75
2021/01/27 13:07:59;;;;;;;6.32;4.00;;;0.10;99.90;;;;;;5046691;28;20044;-75
2021/01/27 13:10:25;;;;;;;5.70;4.00;;;0.20;99.90;;;;;;5046557;28;20060;-75
2021/01/27 13:12:52;;;;;;;6.57;4.05;;;0.30;99.90;;;;;;5046005;28;20604;-75
2021/01/27 13:15:23;;;;;;;8.38;3.90;;;0.40;99.90;;;;;;5041171;28;20055;-75
2021/01/27 13:17:50;;;;;;;5.38;4.30;;;0.30;99.90;;;;;;5040082;28;20115;-75
2021/01/27 13:20:20;;;;;;;8.80;4.32;;;0.30;99.90;;;;;;5044973;28;20079;-75
2021/01/27 13:22:48;;;;;;;5.50;4.35;;;0.50;99.90;;;;;;5045537;28;20047;-73